sensor_id;sensor_type;location;lat;lon;timestamp;pressure;altitude;pressure_sealevel;temperature;humidity
32237;BME280;18726;44.732;10.550;2023-06-26T00:01:55;100979.56;;;23.92;100.00
32237;BME280;18726;44.732;10.550;2023-06-26T00:04:58;100986.94;;;23.99;100.00
32237;BME280;18726;44.732;10.550;2023-06-26T00:08:05;100991.03;;;23.94;100.00
32237;BME280;18726;44.732;10.550;2023-06-26T00:11:09;100988.69;;;23.73;100.00
32237;BME280;18726;44.732;10.550;2023-06-26T00:14:13;100988.53;;;23.64;100.00
32237;BME280;18726;44.732;10.550;2023-06-26T00:17:17;100983.72;;;23.44;100.00
32237;BME280;18726;44.732;10.550;2023-06-26T00:20:21;100985.94;;;23.33;100.00
32237;BME280;18726;44.732;10.550;2023-06-26T00:23:26;100986.06;;;23.26;100.00
32237;BME280;18726;44.732;10.550;2023-06-26T00:26:34;100986.78;;;23.30;100.00
32237;BME280;18726;44.732;10.550;2023-06-26T00:29:38;100983.72;;;23.24;100.00
32237;BME280;18726;44.732;10.550;2023-06-26T00:32:42;100977.28;;;23.31;100.00
32237;BME280;18726;44.732;10.550;2023-06-26T00:35:45;100980.41;;;23.33;100.00
32237;BME280;18726;44.732;10.550;2023-06-26T00:38:49;100973.41;;;23.25;100.00
32237;BME280;18726;44.732;10.550;2023-06-26T00:41:53;100972.00;;;23.17;100.00
32237;BME280;18726;44.732;10.550;2023-06-26T00:45:00;100977.16;;;22.95;100.00
32237;BME280;18726;44.732;10.550;2023-06-26T00:48:03;100974.56;;;23.08;100.00
32237;BME280;18726;44.732;10.550;2023-06-26T00:51:08;100976.25;;;23.41;100.00
32237;BME280;18726;44.732;10.550;2023-06-26T00:54:12;100991.88;;;23.91;100.00
32237;BME280;18726;44.732;10.550;2023-06-26T00:57:18;100981.69;;;24.20;100.00
32237;BME280;18726;44.732;10.550;2023-06-26T01:00:22;100985.28;;;24.37;100.00
32237;BME280;18726;44.732;10.550;2023-06-26T01:03:26;100987.03;;;24.47;100.00
32237;BME280;18726;44.732;10.550;2023-06-26T01:06:33;100991.94;;;24.56;100.00
32237;BME280;18726;44.732;10.550;2023-06-26T01:09:39;100983.97;;;24.58;100.00
32237;BME280;18726;44.732;10.550;2023-06-26T01:12:43;100983.47;;;24.47;100.00
32237;BME280;18726;44.732;10.550;2023-06-26T01:15:47;100987.53;;;24.26;100.00
32237;BME280;18726;44.732;10.550;2023-06-26T01:18:52;100987.09;;;24.28;100.00
32237;BME280;18726;44.732;10.550;2023-06-26T01:22:09;100983.19;;;24.41;100.00
32237;BME280;18726;44.732;10.550;2023-06-26T01:25:35;100989.44;;;24.29;95.53
32237;BME280;18726;44.732;10.550;2023-06-26T01:28:43;100984.50;;;24.37;100.00
32237;BME280;18726;44.732;10.550;2023-06-26T01:31:47;100984.50;;;24.37;100.00
32237;BME280;18726;44.732;10.550;2023-06-26T01:34:52;100982.94;;;24.36;100.00
32237;BME280;18726;44.732;10.550;2023-06-26T01:38:16;100973.25;;;23.92;100.00
32237;BME280;18726;44.732;10.550;2023-06-26T01:41:20;100974.72;;;23.96;100.00
32237;BME280;18726;44.732;10.550;2023-06-26T01:44:29;100977.75;;;24.02;100.00
32237;BME280;18726;44.732;10.550;2023-06-26T01:47:35;100974.03;;;24.08;100.00
32237;BME280;18726;44.732;10.550;2023-06-26T01:50:42;100976.47;;;23.70;100.00
32237;BME280;18726;44.732;10.550;2023-06-26T01:53:50;100985.19;;;23.52;100.00
32237;BME280;18726;44.732;10.550;2023-06-26T01:56:57;100981.56;;;23.55;100.00
32237;BME280;18726;44.732;10.550;2023-06-26T02:00:03;100988.09;;;23.65;100.00
32237;BME280;18726;44.732;10.550;2023-06-26T02:03:17;100986.00;;;23.30;100.00
32237;BME280;18726;44.732;10.550;2023-06-26T02:06:21;100979.16;;;22.95;100.00
32237;BME280;18726;44.732;10.550;2023-06-26T02:09:25;100983.91;;;23.14;100.00
32237;BME280;18726;44.732;10.550;2023-06-26T02:12:28;100980.34;;;23.37;100.00
32237;BME280;18726;44.732;10.550;2023-06-26T02:15:32;100988.53;;;23.64;100.00
32237;BME280;18726;44.732;10.550;2023-06-26T02:18:37;100992.63;;;23.75;100.00
32237;BME280;18726;44.732;10.550;2023-06-26T02:21:41;100997.59;;;23.84;100.00
32237;BME280;18726;44.732;10.550;2023-06-26T02:24:45;100994.81;;;23.84;100.00
32237;BME280;18726;44.732;10.550;2023-06-26T02:27:48;100991.66;;;23.66;100.00
32237;BME280;18726;44.732;10.550;2023-06-26T02:30:52;100997.97;;;23.66;100.00
32237;BME280;18726;44.732;10.550;2023-06-26T02:33:55;100992.50;;;23.63;100.00
32237;BME280;18726;44.732;10.550;2023-06-26T02:36:59;100990.53;;;23.40;100.00
32237;BME280;18726;44.732;10.550;2023-06-26T02:40:04;100986.84;;;22.83;100.00
32237;BME280;18726;44.732;10.550;2023-06-26T02:43:10;100973.34;;;22.39;100.00
32237;BME280;18726;44.732;10.550;2023-06-26T02:46:14;100988.97;;;22.26;100.00
32237;BME280;18726;44.732;10.550;2023-06-26T02:49:18;100994.28;;;22.16;100.00
32237;BME280;18726;44.732;10.550;2023-06-26T02:52:23;100986.28;;;22.22;100.00
32237;BME280;18726;44.732;10.550;2023-06-26T02:55:26;101001.19;;;22.28;100.00
32237;BME280;18726;44.732;10.550;2023-06-26T02:58:31;101006.00;;;22.24;100.00
32237;BME280;18726;44.732;10.550;2023-06-26T03:01:35;101001.09;;;22.35;100.00
32237;BME280;18726;44.732;10.550;2023-06-26T03:04:38;100997.16;;;22.33;100.00
32237;BME280;18726;44.732;10.550;2023-06-26T03:07:45;101007.50;;;22.29;100.00
32237;BME280;18726;44.732;10.550;2023-06-26T03:10:49;100996.69;;;22.38;100.00
32237;BME280;18726;44.732;10.550;2023-06-26T03:13:52;101001.09;;;22.35;100.00
32237;BME280;18726;44.732;10.550;2023-06-26T03:16:56;100994.03;;;22.31;100.00
32237;BME280;18726;44.732;10.550;2023-06-26T03:20:02;100992.88;;;22.28;100.00
32237;BME280;18726;44.732;10.550;2023-06-26T03:23:18;100997.94;;;22.33;100.00
32237;BME280;18726;44.732;10.550;2023-06-26T03:26:22;101000.31;;;22.35;100.00
32237;BME280;18726;44.732;10.550;2023-06-26T03:29:31;101001.09;;;22.35;100.00
32237;BME280;18726;44.732;10.550;2023-06-26T03:32:35;101008.28;;;22.29;100.00
32237;BME280;18726;44.732;10.550;2023-06-26T03:35:39;101007.41;;;22.36;100.00
32237;BME280;18726;44.732;10.550;2023-06-26T03:38:46;101003.44;;;22.37;100.00
32237;BME280;18726;44.732;10.550;2023-06-26T03:41:50;101015.13;;;22.48;100.00
32237;BME280;18726;44.732;10.550;2023-06-26T03:44:54;101018.13;;;22.57;100.00
32237;BME280;18726;44.732;10.550;2023-06-26T03:47:58;101019.44;;;22.76;100.00
32237;BME280;18726;44.732;10.550;2023-06-26T03:51:01;101014.38;;;22.94;100.00
32237;BME280;18726;44.732;10.550;2023-06-26T03:54:05;101016.03;;;23.11;100.00
32237;BME280;18726;44.732;10.550;2023-06-26T03:57:09;101023.97;;;23.33;100.00
32237;BME280;18726;44.732;10.550;2023-06-26T04:00:13;101022.19;;;23.42;100.00
32237;BME280;18726;44.732;10.550;2023-06-26T04:03:20;101021.94;;;23.56;100.00
32237;BME280;18726;44.732;10.550;2023-06-26T04:06:24;101026.56;;;23.99;100.00
32237;BME280;18726;44.732;10.550;2023-06-26T04:09:28;101029.28;;;24.39;100.00
32237;BME280;18726;44.732;10.550;2023-06-26T04:16:14;101044.19;;;25.26;100.00
32237;BME280;18726;44.732;10.550;2023-06-26T04:19:19;101050.78;;;25.32;98.83
32237;BME280;18726;44.732;10.550;2023-06-26T04:22:23;101053.47;;;25.36;96.49
32237;BME280;18726;44.732;10.550;2023-06-26T04:25:27;101052.22;;;25.95;91.50
32237;BME280;18726;44.732;10.550;2023-06-26T04:28:33;101052.69;;;26.44;86.50
32237;BME280;18726;44.732;10.550;2023-06-26T04:31:41;101063.78;;;27.64;80.93
32237;BME280;18726;44.732;10.550;2023-06-26T04:34:45;101064.69;;;28.84;75.97
32237;BME280;18726;44.732;10.550;2023-06-26T04:37:49;101070.38;;;30.09;70.60
32237;BME280;18726;44.732;10.550;2023-06-26T04:40:53;101072.44;;;31.22;67.24
32237;BME280;18726;44.732;10.550;2023-06-26T04:43:57;101074.66;;;32.15;63.21
32237;BME280;18726;44.732;10.550;2023-06-26T04:47:01;101074.00;;;32.91;60.44
32237;BME280;18726;44.732;10.550;2023-06-26T04:50:05;101082.25;;;33.86;56.78
32237;BME280;18726;44.732;10.550;2023-06-26T05:13:50;101080.34;;;39.52;40.72
32237;BME280;18726;44.732;10.550;2023-06-26T05:16:56;101092.84;;;39.94;39.30
32237;BME280;18726;44.732;10.550;2023-06-26T05:20:00;101093.41;;;40.38;38.46
32237;BME280;18726;44.732;10.550;2023-06-26T05:23:04;101100.41;;;41.29;37.02
32237;BME280;18726;44.732;10.550;2023-06-26T05:26:08;101092.25;;;41.88;35.91
32237;BME280;18726;44.732;10.550;2023-06-26T05:38:39;101096.88;;;43.05;34.13
32237;BME280;18726;44.732;10.550;2023-06-26T05:41:44;101098.19;;;43.48;32.88
32237;BME280;18726;44.732;10.550;2023-06-26T05:44:49;101090.94;;;43.47;31.57
32237;BME280;18726;44.732;10.550;2023-06-26T05:47:52;101087.97;;;43.98;32.49
32237;BME280;18726;44.732;10.550;2023-06-26T05:50:56;101093.31;;;44.47;31.34
32237;BME280;18726;44.732;10.550;2023-06-26T05:54:00;101091.31;;;44.88;30.96
32237;BME280;18726;44.732;10.550;2023-06-26T05:57:04;101105.13;;;45.62;29.98
32237;BME280;18726;44.732;10.550;2023-06-26T06:00:08;101099.06;;;46.00;30.01
32237;BME280;18726;44.732;10.550;2023-06-26T06:03:17;101094.19;;;46.35;29.63
32237;BME280;18726;44.732;10.550;2023-06-26T06:06:20;101095.25;;;47.09;28.99
32237;BME280;18726;44.732;10.550;2023-06-26T06:09:25;101097.25;;;47.60;27.49
32237;BME280;18726;44.732;10.550;2023-06-26T06:12:28;101092.59;;;47.74;28.04
32237;BME280;18726;44.732;10.550;2023-06-26T06:15:32;101088.84;;;46.66;28.02
32237;BME280;18726;44.732;10.550;2023-06-26T06:18:36;101092.72;;;45.19;29.80
32237;BME280;18726;44.732;10.550;2023-06-26T06:21:40;101087.06;;;46.88;28.97
32237;BME280;18726;44.732;10.550;2023-06-26T06:24:44;101093.44;;;48.03;27.85
32237;BME280;18726;44.732;10.550;2023-06-26T06:27:48;101091.88;;;49.07;25.83
32237;BME280;18726;44.732;10.550;2023-06-26T06:30:52;101092.72;;;49.38;24.70
32237;BME280;18726;44.732;10.550;2023-06-26T06:33:56;101079.28;;;48.63;25.92
32237;BME280;18726;44.732;10.550;2023-06-26T06:37:00;101070.44;;;48.23;26.67
32237;BME280;18726;44.732;10.550;2023-06-26T06:40:05;101071.63;;;49.97;25.08
32237;BME280;18726;44.732;10.550;2023-06-26T06:43:09;101073.56;;;50.26;24.80
32237;BME280;18726;44.732;10.550;2023-06-26T06:46:13;101075.56;;;50.99;24.20
32237;BME280;18726;44.732;10.550;2023-06-26T06:49:18;101066.91;;;51.92;23.18
32237;BME280;18726;44.732;10.550;2023-06-26T06:52:22;101066.84;;;52.27;23.48
32237;BME280;18726;44.732;10.550;2023-06-26T06:55:26;101064.97;;;52.57;22.88
32237;BME280;18726;44.732;10.550;2023-06-26T06:58:30;101066.03;;;52.50;23.04
32237;BME280;18726;44.732;10.550;2023-06-26T07:01:37;101071.25;;;52.66;22.07
32237;BME280;18726;44.732;10.550;2023-06-26T07:04:41;101073.34;;;53.41;22.32
32237;BME280;18726;44.732;10.550;2023-06-26T07:07:45;101074.94;;;53.31;22.00
32237;BME280;18726;44.732;10.550;2023-06-26T07:10:49;101073.31;;;53.27;22.28
32237;BME280;18726;44.732;10.550;2023-06-26T07:13:55;101064.00;;;53.70;22.18
32237;BME280;18726;44.732;10.550;2023-06-26T07:16:58;101064.63;;;52.14;22.39
32237;BME280;18726;44.732;10.550;2023-06-26T07:20:02;101055.31;;;51.92;23.19
32237;BME280;18726;44.732;10.550;2023-06-26T07:23:10;101060.81;;;52.60;22.62
32237;BME280;18726;44.732;10.550;2023-06-26T07:26:14;101059.34;;;53.51;21.95
32237;BME280;18726;44.732;10.550;2023-06-26T07:29:18;101059.38;;;51.87;22.78
32237;BME280;18726;44.732;10.550;2023-06-26T07:32:22;101051.53;;;52.02;22.85
32237;BME280;18726;44.732;10.550;2023-06-26T07:35:26;101062.31;;;52.24;22.54
32237;BME280;18726;44.732;10.550;2023-06-26T07:38:30;101060.56;;;52.56;22.28
32237;BME280;18726;44.732;10.550;2023-06-26T07:41:34;101059.47;;;51.19;23.92
32237;BME280;18726;44.732;10.550;2023-06-26T07:44:38;101058.63;;;51.28;23.44
32237;BME280;18726;44.732;10.550;2023-06-26T07:47:41;101046.44;;;48.11;25.53
32237;BME280;18726;44.732;10.550;2023-06-26T07:50:45;101045.59;;;46.22;26.97
32237;BME280;18726;44.732;10.550;2023-06-26T07:53:51;101056.16;;;44.80;27.94
32237;BME280;18726;44.732;10.550;2023-06-26T07:57:03;101052.31;;;45.82;28.80
32237;BME280;18726;44.732;10.550;2023-06-26T08:00:11;101046.78;;;45.52;27.55
32237;BME280;18726;44.732;10.550;2023-06-26T08:03:48;101041.38;;;43.52;29.64
32237;BME280;18726;44.732;10.550;2023-06-26T08:06:53;101044.47;;;43.84;30.85
32237;BME280;18726;44.732;10.550;2023-06-26T08:09:57;101051.53;;;44.76;30.51
32237;BME280;18726;44.732;10.550;2023-06-26T08:13:01;101053.97;;;45.35;29.53
32237;BME280;18726;44.732;10.550;2023-06-26T08:16:05;101049.66;;;46.01;28.20
32237;BME280;18726;44.732;10.550;2023-06-26T08:19:10;101054.09;;;46.54;28.87
32237;BME280;18726;44.732;10.550;2023-06-26T08:22:14;101042.03;;;47.54;27.03
32237;BME280;18726;44.732;10.550;2023-06-26T08:25:18;101050.84;;;47.92;26.12
32237;BME280;18726;44.732;10.550;2023-06-26T08:28:22;101046.44;;;48.11;26.55
32237;BME280;18726;44.732;10.550;2023-06-26T08:31:25;101042.31;;;47.94;25.98
32237;BME280;18726;44.732;10.550;2023-06-26T08:34:29;101049.34;;;48.11;25.57
32237;BME280;18726;44.732;10.550;2023-06-26T08:37:33;101042.47;;;47.96;25.88
32237;BME280;18726;44.732;10.550;2023-06-26T08:40:36;101046.03;;;47.68;23.91
32237;BME280;18726;44.732;10.550;2023-06-26T08:43:40;101042.31;;;47.48;25.71
32237;BME280;18726;44.732;10.550;2023-06-26T08:46:45;101039.72;;;47.79;25.89
32237;BME280;18726;44.732;10.550;2023-06-26T08:49:58;101037.72;;;47.35;26.07
32237;BME280;18726;44.732;10.550;2023-06-26T08:56:20;101038.47;;;47.09;24.06
32237;BME280;18726;44.732;10.550;2023-06-26T08:59:27;101030.84;;;45.83;25.79
32237;BME280;18726;44.732;10.550;2023-06-26T09:02:31;101027.78;;;44.99;29.28
32237;BME280;18726;44.732;10.550;2023-06-26T09:05:35;101025.88;;;44.94;28.93
32237;BME280;18726;44.732;10.550;2023-06-26T09:08:39;101029.66;;;45.04;27.98
32237;BME280;18726;44.732;10.550;2023-06-26T09:11:42;101029.16;;;44.20;26.97
32237;BME280;18726;44.732;10.550;2023-06-26T09:14:47;101026.97;;;44.58;29.03
32237;BME280;18726;44.732;10.550;2023-06-26T09:17:56;101017.69;;;44.42;28.88
32237;BME280;18726;44.732;10.550;2023-06-26T09:21:00;101006.13;;;41.97;29.29
32237;BME280;18726;44.732;10.550;2023-06-26T09:24:08;101009.84;;;42.77;31.83
32237;BME280;18726;44.732;10.550;2023-06-26T09:27:12;101009.63;;;42.75;29.76
32237;BME280;18726;44.732;10.550;2023-06-26T09:30:17;101002.41;;;44.40;29.96
32237;BME280;18726;44.732;10.550;2023-06-26T09:33:21;101005.63;;;45.57;28.49
32237;BME280;18726;44.732;10.550;2023-06-26T09:36:28;101011.09;;;45.37;28.17
32237;BME280;18726;44.732;10.550;2023-06-26T09:39:32;100996.19;;;42.19;31.06
32237;BME280;18726;44.732;10.550;2023-06-26T09:42:37;100998.03;;;42.81;30.20
32237;BME280;18726;44.732;10.550;2023-06-26T09:45:40;100992.31;;;41.60;31.25
32237;BME280;18726;44.732;10.550;2023-06-26T09:48:44;100989.16;;;41.50;31.64
32237;BME280;18726;44.732;10.550;2023-06-26T09:51:49;100980.75;;;40.76;30.40
32237;BME280;18726;44.732;10.550;2023-06-26T09:55:09;100980.00;;;41.93;30.82
32237;BME280;18726;44.732;10.550;2023-06-26T09:58:14;100976.22;;;42.99;30.65
32237;BME280;18726;44.732;10.550;2023-06-26T10:01:19;100972.13;;;41.37;30.87
32237;BME280;18726;44.732;10.550;2023-06-26T10:04:23;100971.50;;;39.65;32.82
32237;BME280;18726;44.732;10.550;2023-06-26T10:07:27;100979.91;;;40.15;32.25
32237;BME280;18726;44.732;10.550;2023-06-26T10:10:36;100965.88;;;40.70;33.49
32237;BME280;18726;44.732;10.550;2023-06-26T10:13:42;100976.53;;;40.43;31.39
32237;BME280;18726;44.732;10.550;2023-06-26T10:16:49;100971.16;;;40.13;31.37
32237;BME280;18726;44.732;10.550;2023-06-26T10:19:55;100961.31;;;40.41;32.59
32237;BME280;18726;44.732;10.550;2023-06-26T10:23:00;100959.50;;;41.11;30.48
32237;BME280;18726;44.732;10.550;2023-06-26T10:26:08;100955.09;;;40.90;31.52
32237;BME280;18726;44.732;10.550;2023-06-26T10:29:15;100968.84;;;41.33;29.97
32237;BME280;18726;44.732;10.550;2023-06-26T10:32:20;100959.28;;;42.57;29.97
32237;BME280;18726;44.732;10.550;2023-06-26T10:35:25;100959.63;;;42.18;29.91
32237;BME280;18726;44.732;10.550;2023-06-26T10:38:51;100961.28;;;42.05;30.17
32237;BME280;18726;44.732;10.550;2023-06-26T10:42:08;100958.91;;;40.05;31.16
32237;BME280;18726;44.732;10.550;2023-06-26T10:45:19;100953.31;;;40.13;31.98
32237;BME280;18726;44.732;10.550;2023-06-26T10:48:28;100952.72;;;38.73;32.95
32237;BME280;18726;44.732;10.550;2023-06-26T10:51:33;100941.47;;;40.48;32.59
32237;BME280;18726;44.732;10.550;2023-06-26T10:54:37;100957.91;;;40.16;31.07
32237;BME280;18726;44.732;10.550;2023-06-26T10:57:45;100944.38;;;41.03;31.53
32237;BME280;18726;44.732;10.550;2023-06-26T11:00:50;100949.78;;;42.62;31.76
32237;BME280;18726;44.732;10.550;2023-06-26T11:04:06;100957.69;;;42.85;29.68
32237;BME280;18726;44.732;10.550;2023-06-26T11:10:20;100940.97;;;43.19;28.25
32237;BME280;18726;44.732;10.550;2023-06-26T11:13:23;100946.75;;;42.68;27.69
32237;BME280;18726;44.732;10.550;2023-06-26T11:16:28;100936.81;;;43.58;28.78
32237;BME280;18726;44.732;10.550;2023-06-26T11:19:31;100930.25;;;41.53;29.06
32237;BME280;18726;44.732;10.550;2023-06-26T11:22:37;100937.09;;;41.15;30.71
32237;BME280;18726;44.732;10.550;2023-06-26T11:25:41;100929.75;;;42.19;31.18
32237;BME280;18726;44.732;10.550;2023-06-26T11:28:51;100923.78;;;43.04;30.31
32237;BME280;18726;44.732;10.550;2023-06-26T11:31:59;100936.81;;;43.51;28.91
32237;BME280;18726;44.732;10.550;2023-06-26T11:35:04;100934.53;;;43.57;29.57
32237;BME280;18726;44.732;10.550;2023-06-26T11:38:08;100926.69;;;43.57;29.50
32237;BME280;18726;44.732;10.550;2023-06-26T11:41:17;100930.31;;;43.73;29.22
32237;BME280;18726;44.732;10.550;2023-06-26T11:44:21;100930.31;;;43.65;27.44
32237;BME280;18726;44.732;10.550;2023-06-26T11:47:25;100922.31;;;43.49;28.40
32237;BME280;18726;44.732;10.550;2023-06-26T11:50:30;100924.56;;;44.03;29.12
32237;BME280;18726;44.732;10.550;2023-06-26T11:53:42;100917.22;;;41.65;30.59
32237;BME280;18726;44.732;10.550;2023-06-26T11:56:58;100924.41;;;40.09;30.24
32237;BME280;18726;44.732;10.550;2023-06-26T12:00:13;100912.28;;;41.44;32.49
32237;BME280;18726;44.732;10.550;2023-06-26T12:03:16;100922.69;;;42.12;30.32
32237;BME280;18726;44.732;10.550;2023-06-26T12:06:21;100912.25;;;39.82;31.21
32237;BME280;18726;44.732;10.550;2023-06-26T12:09:25;100913.53;;;41.36;30.88
32237;BME280;18726;44.732;10.550;2023-06-26T12:12:30;100911.91;;;41.97;29.97
32237;BME280;18726;44.732;10.550;2023-06-26T12:15:35;100905.13;;;41.51;31.19
32237;BME280;18726;44.732;10.550;2023-06-26T12:18:38;100906.28;;;42.05;30.31
32237;BME280;18726;44.732;10.550;2023-06-26T12:21:46;100908.03;;;42.59;29.72
32237;BME280;18726;44.732;10.550;2023-06-26T12:24:50;100893.03;;;42.74;29.21
32237;BME280;18726;44.732;10.550;2023-06-26T12:27:54;100898.81;;;42.97;28.58
32237;BME280;18726;44.732;10.550;2023-06-26T12:31:14;100900.34;;;43.13;28.72
32237;BME280;18726;44.732;10.550;2023-06-26T12:34:26;100903.44;;;43.30;27.70
32237;BME280;18726;44.732;10.550;2023-06-26T12:37:36;100900.53;;;43.07;28.15
32237;BME280;18726;44.732;10.550;2023-06-26T12:40:47;100889.41;;;41.86;28.63
32237;BME280;18726;44.732;10.550;2023-06-26T12:43:55;100895.81;;;42.07;29.93
32237;BME280;18726;44.732;10.550;2023-06-26T12:47:00;100887.38;;;42.38;29.86
32237;BME280;18726;44.732;10.550;2023-06-26T12:50:05;100893.22;;;42.68;29.10
32237;BME280;18726;44.732;10.550;2023-06-26T12:53:10;100894.44;;;42.96;29.38
32237;BME280;18726;44.732;10.550;2023-06-26T12:56:13;100889.88;;;43.38;28.58
32237;BME280;18726;44.732;10.550;2023-06-26T12:59:20;100888.72;;;43.72;27.75
32237;BME280;18726;44.732;10.550;2023-06-26T13:02:24;100880.16;;;43.41;27.57
32237;BME280;18726;44.732;10.550;2023-06-26T13:05:28;100878.25;;;43.59;27.05
32237;BME280;18726;44.732;10.550;2023-06-26T13:08:35;100874.38;;;42.22;27.64
32237;BME280;18726;44.732;10.550;2023-06-26T13:11:39;100868.38;;;42.48;27.19
32237;BME280;18726;44.732;10.550;2023-06-26T13:14:43;100867.53;;;42.25;28.70
32237;BME280;18726;44.732;10.550;2023-06-26T13:17:47;100867.88;;;42.13;27.45
32237;BME280;18726;44.732;10.550;2023-06-26T13:20:51;100855.84;;;40.67;27.29
32237;BME280;18726;44.732;10.550;2023-06-26T13:23:56;100851.09;;;41.04;29.77
32237;BME280;18726;44.732;10.550;2023-06-26T13:27:00;100850.63;;;41.62;29.38
32237;BME280;18726;44.732;10.550;2023-06-26T13:30:04;100856.91;;;42.33;28.82
32237;BME280;18726;44.732;10.550;2023-06-26T13:33:08;100850.00;;;42.21;27.46
32237;BME280;18726;44.732;10.550;2023-06-26T13:36:15;100849.59;;;42.68;27.27
32237;BME280;18726;44.732;10.550;2023-06-26T13:39:19;100843.28;;;42.77;27.31
32237;BME280;18726;44.732;10.550;2023-06-26T13:42:22;100837.19;;;42.58;27.97
32237;BME280;18726;44.732;10.550;2023-06-26T13:45:26;100837.97;;;42.73;28.19
32237;BME280;18726;44.732;10.550;2023-06-26T13:48:29;100832.81;;;42.64;26.67
32237;BME280;18726;44.732;10.550;2023-06-26T13:51:33;100823.13;;;42.83;27.30
32237;BME280;18726;44.732;10.550;2023-06-26T13:54:37;100836.47;;;42.72;26.87
32237;BME280;18726;44.732;10.550;2023-06-26T13:57:45;100825.78;;;42.80;27.83
32237;BME280;18726;44.732;10.550;2023-06-26T14:00:48;100833.44;;;43.01;27.08
32237;BME280;18726;44.732;10.550;2023-06-26T14:03:52;100823.69;;;43.04;27.72
32237;BME280;18726;44.732;10.550;2023-06-26T14:06:56;100823.91;;;42.91;26.90
32237;BME280;18726;44.732;10.550;2023-06-26T14:10:00;100826.94;;;42.85;25.69
32237;BME280;18726;44.732;10.550;2023-06-26T14:13:04;100821.53;;;42.51;27.12
32237;BME280;18726;44.732;10.550;2023-06-26T14:16:09;100812.00;;;42.41;27.05
32237;BME280;18726;44.732;10.550;2023-06-26T14:19:12;100819.34;;;41.77;25.97
32237;BME280;18726;44.732;10.550;2023-06-26T14:22:18;100809.59;;;42.09;28.10
32237;BME280;18726;44.732;10.550;2023-06-26T14:25:23;100806.22;;;42.26;27.57
32237;BME280;18726;44.732;10.550;2023-06-26T14:28:26;100810.13;;;42.43;26.80
32237;BME280;18726;44.732;10.550;2023-06-26T14:31:30;100798.84;;;42.45;26.55
32237;BME280;18726;44.732;10.550;2023-06-26T14:34:34;100799.78;;;42.40;27.21
32237;BME280;18726;44.732;10.550;2023-06-26T14:37:38;100793.81;;;41.43;28.56
32237;BME280;18726;44.732;10.550;2023-06-26T14:40:42;100796.75;;;40.47;27.88
32237;BME280;18726;44.732;10.550;2023-06-26T14:43:46;100791.00;;;39.66;25.54
32237;BME280;18726;44.732;10.550;2023-06-26T14:46:50;100780.16;;;39.38;28.09
32237;BME280;18726;44.732;10.550;2023-06-26T14:49:54;100782.66;;;39.41;27.28
32237;BME280;18726;44.732;10.550;2023-06-26T14:52:58;100784.06;;;38.26;27.93
32237;BME280;18726;44.732;10.550;2023-06-26T14:56:03;100783.66;;;38.86;26.56
32237;BME280;18726;44.732;10.550;2023-06-26T14:59:06;100781.03;;;37.99;26.43
32237;BME280;18726;44.732;10.550;2023-06-26T15:02:10;100774.25;;;38.27;28.24
32237;BME280;18726;44.732;10.550;2023-06-26T15:05:14;100766.41;;;38.14;27.76
32237;BME280;18726;44.732;10.550;2023-06-26T15:08:18;100758.03;;;37.84;27.82
32237;BME280;18726;44.732;10.550;2023-06-26T15:11:22;100769.47;;;37.97;27.17
32237;BME280;18726;44.732;10.550;2023-06-26T15:14:25;100758.13;;;38.16;27.54
32237;BME280;18726;44.732;10.550;2023-06-26T15:17:29;100749.69;;;38.29;27.03
32237;BME280;18726;44.732;10.550;2023-06-26T15:20:32;100751.75;;;38.29;27.81
32237;BME280;18726;44.732;10.550;2023-06-26T15:23:36;100756.00;;;38.54;27.93
32237;BME280;18726;44.732;10.550;2023-06-26T15:26:40;100744.63;;;39.18;28.53
32237;BME280;18726;44.732;10.550;2023-06-26T15:29:43;100745.69;;;39.68;28.39
32237;BME280;18726;44.732;10.550;2023-06-26T15:32:47;100746.09;;;39.98;28.14
32237;BME280;18726;44.732;10.550;2023-06-26T15:35:51;100749.03;;;40.06;28.25
32237;BME280;18726;44.732;10.550;2023-06-26T15:38:55;100740.06;;;40.02;26.88
32237;BME280;18726;44.732;10.550;2023-06-26T15:41:59;100735.03;;;40.08;28.19
32237;BME280;18726;44.732;10.550;2023-06-26T15:45:04;100731.25;;;39.66;29.03
32237;BME280;18726;44.732;10.550;2023-06-26T15:48:08;100736.84;;;39.32;28.56
32237;BME280;18726;44.732;10.550;2023-06-26T15:51:13;100733.03;;;38.71;25.79
32237;BME280;18726;44.732;10.550;2023-06-26T15:54:17;100722.59;;;38.28;25.09
32237;BME280;18726;44.732;10.550;2023-06-26T15:57:21;100721.09;;;38.08;26.63
32237;BME280;18726;44.732;10.550;2023-06-26T16:00:25;100725.97;;;37.89;26.42
32237;BME280;18726;44.732;10.550;2023-06-26T16:03:29;100716.94;;;37.72;26.66
32237;BME280;18726;44.732;10.550;2023-06-26T16:06:33;100723.09;;;37.51;26.12
32237;BME280;18726;44.732;10.550;2023-06-26T16:09:37;100708.53;;;37.42;27.48
32237;BME280;18726;44.732;10.550;2023-06-26T16:12:41;100713.66;;;37.68;27.89
32237;BME280;18726;44.732;10.550;2023-06-26T16:15:45;100717.69;;;37.54;27.35
32237;BME280;18726;44.732;10.550;2023-06-26T16:18:49;100718.13;;;37.58;27.22
32237;BME280;18726;44.732;10.550;2023-06-26T16:21:53;100713.78;;;37.32;30.87
32237;BME280;18726;44.732;10.550;2023-06-26T16:24:57;100710.22;;;37.02;30.95
32237;BME280;18726;44.732;10.550;2023-06-26T16:28:03;100710.34;;;37.15;30.64
32237;BME280;18726;44.732;10.550;2023-06-26T16:31:07;100711.22;;;37.04;30.78
32237;BME280;18726;44.732;10.550;2023-06-26T16:34:10;100706.09;;;37.03;31.53